createdAt,value
2022-09-01T00:01:20.853Z,18.22
2022-09-01T00:06:24.332Z,18.17
2022-09-01T00:11:28.007Z,18.04
2022-09-01T00:16:30.943Z,17.97
2022-09-01T00:21:37.192Z,17.93
2022-09-01T00:26:39.037Z,18.01
2022-09-01T00:31:41.835Z,17.95
2022-09-01T00:36:43.883Z,17.90
2022-09-01T00:41:47.070Z,17.80
2022-09-01T00:46:55.085Z,17.86
2022-09-01T00:52:03.832Z,17.79
2022-09-01T00:57:06.503Z,17.65
2022-09-01T01:02:08.213Z,17.61
2022-09-01T01:07:11.284Z,17.59
2022-09-01T01:12:17.570Z,17.52
2022-09-01T01:17:22.217Z,17.47
2022-09-01T01:22:54.204Z,17.44
2022-09-01T01:28:19.131Z,17.43
2022-09-01T01:33:32.063Z,17.41
2022-09-01T01:38:36.018Z,17.39
2022-09-01T01:43:38.818Z,17.34
2022-09-01T01:48:42.551Z,17.30
2022-09-01T01:53:45.196Z,17.25
2022-09-01T01:58:46.791Z,17.26
2022-09-01T02:03:54.807Z,17.21
2022-09-01T02:08:58.323Z,17.16
2022-09-01T02:14:00.979Z,17.16
2022-09-01T02:19:06.992Z,17.11
2022-09-01T02:24:09.041Z,17.12
2022-09-01T02:29:19.043Z,17.08
2022-09-01T02:34:24.158Z,17.02
2022-09-01T02:39:32.687Z,17.01
2022-09-01T02:44:36.311Z,16.97
2022-09-01T02:49:43.047Z,17.03
2022-09-01T02:54:45.903Z,16.95
2022-09-01T02:59:48.489Z,16.90
2022-09-01T03:04:54.402Z,16.89
2022-09-01T03:09:56.134Z,16.89
2022-09-01T03:14:57.744Z,16.86
2022-09-01T03:19:59.704Z,16.77
2022-09-01T03:25:01.373Z,16.79
2022-09-01T03:30:04.206Z,16.82
2022-09-01T03:35:06.676Z,16.80
2022-09-01T03:40:09.096Z,16.74
2022-09-01T03:45:14.170Z,16.67
2022-09-01T03:50:21.860Z,16.62
2022-09-01T03:55:28.533Z,16.64
2022-09-01T04:00:30.207Z,16.71
2022-09-01T04:05:33.938Z,16.66
2022-09-01T04:10:42.096Z,16.55
2022-09-01T04:15:44.584Z,16.59
2022-09-01T04:20:56.875Z,16.50
2022-09-01T04:26:00.231Z,16.57
2022-09-01T04:31:06.155Z,16.53
2022-09-01T04:36:19.611Z,16.47
2022-09-01T04:41:25.880Z,16.43
2022-09-01T04:46:29.544Z,16.42
2022-09-01T04:51:31.265Z,16.28
2022-09-01T04:56:35.539Z,16.35
2022-09-01T05:01:45.639Z,16.24
2022-09-01T05:07:01.050Z,16.27
2022-09-01T05:12:15.836Z,16.25
2022-09-01T05:17:21.598Z,16.24
2022-09-01T05:22:25.861Z,16.19
2022-09-01T05:27:33.238Z,16.29
2022-09-01T05:32:37.315Z,16.20
2022-09-01T05:37:39.823Z,16.23
2022-09-01T05:42:44.124Z,16.29
2022-09-01T05:47:46.682Z,16.13
2022-09-01T05:52:51.053Z,16.25
2022-09-01T05:57:53.960Z,16.27
2022-09-01T06:02:58.689Z,16.27
2022-09-01T06:08:00.854Z,16.22
2022-09-01T06:13:03.398Z,16.33
2022-09-01T06:18:06.986Z,16.50
2022-09-01T06:23:15.517Z,16.43
2022-09-01T06:28:21.284Z,16.44
2022-09-01T06:33:25.219Z,16.54
2022-09-01T06:38:27.349Z,16.49
2022-09-01T06:43:30.816Z,16.56
2022-09-01T06:48:32.480Z,16.41
2022-09-01T06:53:39.211Z,16.53
2022-09-01T06:58:47.506Z,16.64
2022-09-01T07:03:52.151Z,16.69
2022-09-01T07:09:32.151Z,16.85
2022-09-01T07:20:28.463Z,17.10
2022-09-01T07:25:35.763Z,17.21
2022-09-01T07:36:33.113Z,17.29
2022-09-01T07:47:19.897Z,17.71
2022-09-01T07:52:22.766Z,17.79
2022-09-01T07:57:29.897Z,18.12
2022-09-01T08:02:33.059Z,18.23
2022-09-01T08:07:51.729Z,18.29
2022-09-01T08:12:57.529Z,18.50
2022-09-01T08:18:01.309Z,18.39
2022-09-01T08:23:07.316Z,18.51
2022-09-01T08:28:11.974Z,18.87
2022-09-01T08:33:15.593Z,19.11
2022-09-01T08:38:19.958Z,19.36
2022-09-01T08:43:37.790Z,19.42
2022-09-01T08:54:38.308Z,19.73
2022-09-01T08:59:40.350Z,20.07
2022-09-01T09:05:24.739Z,20.11
2022-09-01T09:10:37.505Z,20.32
2022-09-01T09:16:08.335Z,20.46
2022-09-01T09:21:29.972Z,20.61
2022-09-01T09:26:47.858Z,20.78
2022-09-01T09:32:02.850Z,20.80
2022-09-01T09:37:21.081Z,21.11
2022-09-01T09:42:22.854Z,21.11
2022-09-01T09:47:46.291Z,21.27
2022-09-01T09:52:50.083Z,21.33
2022-09-01T09:57:56.932Z,21.59
2022-09-01T10:03:08.625Z,21.93
2022-09-01T10:08:37.543Z,22.03
2022-09-01T10:13:39.451Z,21.94
2022-09-01T10:18:44.898Z,22.13
2022-09-01T10:23:46.590Z,22.36
2022-09-01T10:29:20.403Z,22.56
2022-09-01T10:34:23.975Z,22.64
2022-09-01T10:39:30.910Z,22.53
2022-09-01T10:44:38.972Z,22.74
2022-09-01T10:50:09.895Z,23.01
2022-09-01T10:55:25.064Z,23.08
2022-09-01T11:00:35.282Z,23.35
2022-09-01T11:06:12.026Z,23.28
2022-09-01T11:11:21.412Z,23.60
2022-09-01T11:16:47.174Z,23.46
2022-09-01T11:22:06.087Z,23.74
2022-09-01T11:27:50.715Z,23.71
2022-09-01T11:33:00.095Z,23.75
2022-09-01T11:38:07.910Z,23.88
2022-09-01T11:43:16.556Z,24.06
2022-09-01T11:48:18.955Z,24.32
2022-09-01T11:53:24.255Z,24.37
2022-09-01T11:58:28.993Z,23.98
2022-09-01T12:03:30.920Z,24.20
2022-09-01T12:08:38.798Z,24.51
2022-09-01T12:13:53.794Z,24.69
2022-09-01T12:18:59.099Z,24.67
2022-09-01T12:24:17.723Z,24.68
2022-09-01T12:29:19.559Z,24.51
2022-09-01T12:34:59.386Z,24.66
2022-09-01T12:40:01.186Z,24.73
2022-09-01T12:45:05.453Z,24.81
2022-09-01T12:50:27.346Z,24.73
2022-09-01T12:55:47.855Z,24.54
2022-09-01T13:00:58.937Z,24.74
2022-09-01T13:06:02.869Z,24.60
2022-09-01T13:11:11.296Z,24.45
2022-09-01T13:16:14.083Z,24.82
2022-09-01T13:21:16.180Z,25.00
2022-09-01T13:26:17.979Z,24.74
2022-09-01T13:31:29.109Z,24.70
2022-09-01T13:36:51.171Z,24.78
2022-09-01T13:41:53.021Z,24.64
2022-09-01T13:52:17.333Z,24.99
2022-09-01T13:57:19.280Z,25.23
2022-09-01T14:02:21.086Z,25.08
2022-09-01T14:07:22.731Z,25.10
2022-09-01T14:12:24.617Z,25.11
2022-09-01T14:17:26.462Z,25.02
2022-09-01T14:22:28.337Z,25.00
2022-09-01T14:27:30.092Z,25.03
2022-09-01T14:32:31.795Z,25.01
2022-09-01T14:37:33.976Z,24.97
2022-09-01T14:42:37.154Z,25.05
2022-09-01T14:47:39.523Z,24.98
2022-09-01T14:52:41.424Z,25.01
2022-09-01T14:57:43.135Z,25.03
2022-09-01T15:02:45.682Z,24.84
2022-09-01T15:07:47.882Z,24.86
2022-09-01T15:12:49.914Z,24.79
2022-09-01T15:17:51.759Z,24.70
2022-09-01T15:22:53.865Z,24.77
2022-09-01T15:27:55.681Z,24.75
2022-09-01T15:32:57.424Z,24.79
2022-09-01T15:38:00.228Z,24.80
2022-09-01T15:43:02.086Z,24.60
2022-09-01T15:48:03.863Z,24.61
2022-09-01T15:53:08.512Z,24.61
2022-09-01T15:58:12.113Z,24.53
2022-09-01T16:03:13.866Z,24.38
2022-09-01T16:08:15.564Z,24.32
2022-09-01T16:13:17.623Z,24.18
2022-09-01T16:18:32.768Z,23.99
2022-09-01T16:23:43.131Z,23.77
2022-09-01T16:28:49.285Z,23.78
2022-09-01T16:33:57.097Z,23.72
2022-09-01T16:39:08.186Z,23.74
2022-09-01T16:44:31.651Z,23.86
2022-09-01T16:50:03.994Z,23.82
2022-09-01T16:55:24.950Z,23.68
2022-09-01T17:00:32.773Z,23.71
2022-09-01T17:05:45.676Z,23.73
2022-09-01T17:11:11.238Z,23.70
2022-09-01T17:16:29.556Z,23.61
2022-09-01T17:21:53.536Z,23.38
2022-09-01T17:27:05.062Z,23.35
2022-09-01T17:33:01.126Z,23.27
2022-09-01T17:38:13.977Z,23.20
2022-09-01T17:43:27.783Z,23.13
2022-09-01T17:48:43.925Z,23.01
2022-09-01T17:54:08.915Z,22.93
2022-09-01T17:59:43.997Z,22.85
2022-09-01T18:05:02.258Z,22.71
2022-09-01T18:10:07.848Z,22.81
2022-09-01T18:15:16.449Z,22.59
2022-09-01T18:20:43.244Z,22.61
2022-09-01T18:25:49.602Z,22.60
2022-09-01T18:31:00.521Z,22.45
2022-09-01T18:36:32.164Z,22.37
2022-09-01T18:42:15.529Z,22.23
2022-09-01T18:47:28.371Z,22.19
2022-09-01T18:52:33.311Z,22.02
2022-09-01T18:57:38.238Z,21.97
2022-09-01T19:02:45.817Z,21.89
2022-09-01T19:08:07.344Z,22.01
2022-09-01T19:13:28.158Z,21.90
2022-09-01T19:18:50.867Z,21.75
2022-09-01T19:24:01.705Z,21.57
2022-09-01T19:29:18.821Z,21.62
2022-09-01T19:34:41.499Z,21.53
2022-09-01T19:39:48.812Z,21.46
2022-09-01T19:45:12.653Z,21.42
2022-09-01T19:50:36.019Z,21.40
2022-09-01T19:55:46.498Z,21.29
2022-09-01T20:00:53.563Z,21.25
2022-09-01T20:06:19.160Z,21.26
2022-09-01T20:11:51.885Z,21.06
2022-09-01T20:16:59.996Z,20.93
2022-09-01T20:22:21.445Z,20.94
2022-09-01T20:27:33.957Z,20.83
2022-09-01T20:32:53.540Z,20.70
2022-09-01T20:38:01.458Z,20.68
2022-09-01T20:43:22.837Z,20.57
2022-09-01T20:48:27.823Z,20.44
2022-09-01T20:53:54.735Z,20.40
2022-09-01T20:59:08.738Z,20.31
2022-09-01T21:04:48.946Z,20.23
2022-09-01T21:10:08.186Z,20.41
2022-09-01T21:15:38.805Z,20.22
2022-09-01T21:20:40.439Z,20.20
2022-09-01T21:25:44.326Z,20.07
2022-09-01T21:30:52.069Z,19.93
2022-09-01T21:35:54.397Z,19.89
2022-09-01T21:40:58.559Z,19.84
2022-09-01T21:46:01.209Z,19.81
2022-09-01T21:51:06.707Z,19.80
2022-09-01T21:56:08.575Z,19.75
2022-09-01T22:01:12.032Z,19.71
2022-09-01T22:06:16.184Z,19.65
2022-09-01T22:11:18.804Z,19.63
2022-09-01T22:16:21.917Z,19.60
2022-09-01T22:21:24.597Z,19.44
2022-09-01T22:26:30.215Z,19.39
2022-09-01T22:31:34.870Z,19.31
2022-09-01T22:36:43.634Z,19.33
2022-09-01T22:41:45.318Z,19.22
2022-09-01T22:46:46.994Z,19.26
2022-09-01T22:51:50.273Z,19.20
2022-09-01T22:56:52.708Z,19.13
2022-09-01T23:01:58.099Z,19.07
2022-09-01T23:06:59.951Z,19.02
2022-09-01T23:12:01.675Z,18.95
2022-09-01T23:17:03.452Z,18.92
2022-09-01T23:22:05.158Z,18.89
2022-09-01T23:27:06.883Z,18.83
2022-09-01T23:32:08.679Z,18.78
2022-09-01T23:37:10.739Z,18.72
2022-09-01T23:42:12.524Z,18.83
2022-09-01T23:47:14.307Z,18.83
2022-09-01T23:52:16.214Z,18.73
2022-09-01T23:57:19.051Z,18.72
